Time;durP1;ratioP1;P1;durP2;ratioP2;P2;SDS_P1;SDS_P2;PMS_P1;PMS_P2;Temp;Humidity;BMP_temperature;BMP_pressure;BME280_temperature;BME280_humidity;BME280_pressure;Samples;Min_cycle;Max_cycle;Signal;HPM_P1;HPM_P2
2022/08/02 00:00:57;;;;;;;12.60;11.77;;;14.10;99.90;;;;;;5061799;28;20459;-67
2022/08/02 00:03:24;;;;;;;13.30;12.40;;;14.00;99.90;;;;;;5061093;28;20463;-66
2022/08/02 00:05:53;;;;;;;12.77;11.77;;;14.00;99.90;;;;;;5063641;28;20462;-66
2022/08/02 00:08:21;;;;;;;12.47;11.47;;;14.00;99.90;;;;;;5060364;28;20454;-65
2022/08/02 00:10:48;;;;;;;20.17;12.00;;;14.00;99.90;;;;;;5058150;28;20495;-67
2022/08/02 00:13:17;;;;;;;12.23;11.23;;;14.00;99.90;;;;;;5061649;28;20474;-67
2022/08/02 00:15:44;;;;;;;12.40;11.53;;;14.00;99.90;;;;;;5059088;28;20556;-66
2022/08/02 00:18:11;;;;;;;12.17;11.07;;;14.00;99.90;;;;;;5069150;28;21183;-66
2022/08/02 00:20:38;;;;;;;12.70;11.90;;;14.00;99.90;;;;;;5063023;28;20455;-66
2022/08/02 00:23:07;;;;;;;11.87;11.07;;;14.00;99.90;;;;;;5057972;28;20450;-66
2022/08/02 00:25:34;;;;;;;11.43;10.53;;;14.10;99.90;;;;;;5059822;28;20471;-67
2022/08/02 00:28:01;;;;;;;12.07;11.17;;;14.10;99.90;;;;;;5062518;28;20455;-67
2022/08/02 00:30:28;;;;;;;11.80;10.67;;;14.10;99.90;;;;;;5056707;28;20494;-66
2022/08/02 00:32:54;;;;;;;10.70;9.90;;;14.20;99.90;;;;;;5061061;28;20473;-66
2022/08/02 00:35:21;;;;;;;12.13;11.10;;;14.20;99.90;;;;;;5065054;28;20543;-65
2022/08/02 00:37:48;;;;;;;11.60;10.80;;;14.30;99.90;;;;;;5062737;28;20451;-66
2022/08/02 00:40:16;;;;;;;11.70;10.80;;;14.30;99.90;;;;;;5056309;28;20470;-67
2022/08/02 00:42:43;;;;;;;11.63;10.63;;;14.20;99.90;;;;;;5059337;28;20835;-66
2022/08/02 00:45:12;;;;;;;11.47;10.70;;;14.20;99.90;;;;;;5063683;28;20508;-66
2022/08/02 00:47:39;;;;;;;12.23;11.23;;;14.20;99.90;;;;;;5056327;28;20469;-66
2022/08/02 00:50:06;;;;;;;13.37;12.30;;;14.20;99.90;;;;;;5062763;28;21090;-66
2022/08/02 00:52:33;;;;;;;10.80;10.00;;;14.20;99.90;;;;;;5059703;28;20463;-65
2022/08/02 00:55:00;;;;;;;11.07;10.20;;;14.20;99.90;;;;;;5058526;28;20483;-67
2022/08/02 00:57:28;;;;;;;12.03;10.83;;;14.20;99.90;;;;;;5064104;28;21041;-67
2022/08/02 00:59:56;;;;;;;11.90;10.90;;;14.30;99.90;;;;;;5063627;28;20468;-67
2022/08/02 01:02:23;;;;;;;11.33;10.63;;;14.30;99.90;;;;;;5061883;28;20474;-66
2022/08/02 01:04:50;;;;;;;11.87;11.07;;;14.30;99.90;;;;;;5058933;28;20463;-66
2022/08/02 01:07:18;;;;;;;11.33;10.53;;;14.40;99.90;;;;;;5062130;28;20474;-67
2022/08/02 01:09:46;;;;;;;11.57;10.73;;;14.40;99.90;;;;;;5059919;28;20470;-67
2022/08/02 01:12:13;;;;;;;13.00;11.83;;;14.40;99.90;;;;;;5052251;28;20467;-66
2022/08/02 01:14:44;;;;;;;11.83;10.73;;;14.40;99.90;;;;;;5062665;28;20470;-67
2022/08/02 01:17:20;;;;;;;11.80;10.90;;;14.40;99.90;;;;;;5069952;28;20819;-67
2022/08/02 01:19:54;;;;;;;20.73;12.13;;;14.40;99.90;;;;;;5062737;28;20945;-66
2022/08/02 01:22:40;;;;;;;14.63;11.03;;;14.30;99.90;;;;;;5059878;28;20814;-67
2022/08/02 01:25:22;;;;;;;10.67;9.87;;;14.30;99.90;;;;;;5057526;28;20464;-66
2022/08/02 01:28:04;;;;;;;12.53;11.43;;;14.30;99.90;;;;;;5063161;28;20557;-66
2022/08/02 01:30:34;;;;;;;12.00;10.97;;;14.40;99.90;;;;;;5063350;28;20923;-66
2022/08/02 01:33:03;;;;;;;13.17;11.83;;;14.40;99.90;;;;;;5062074;28;21042;-67
2022/08/02 01:35:39;;;;;;;13.23;11.90;;;14.30;99.90;;;;;;5061073;28;20463;-66
2022/08/02 01:38:11;;;;;;;12.20;11.30;;;14.30;99.90;;;;;;5061954;28;20500;-65
2022/08/02 01:40:41;;;;;;;12.13;11.17;;;14.30;99.90;;;;;;5054982;28;20811;-67
2022/08/02 01:43:11;;;;;;;14.60;13.10;;;14.20;99.90;;;;;;5058556;28;20479;-66
2022/08/02 01:45:42;;;;;;;11.43;10.30;;;14.10;99.90;;;;;;5054930;28;20467;-67
2022/08/02 01:48:11;;;;;;;12.40;11.10;;;14.10;99.90;;;;;;5063694;28;20555;-66
2022/08/02 01:50:41;;;;;;;12.77;11.60;;;14.00;99.90;;;;;;5061415;28;20483;-67
2022/08/02 01:53:10;;;;;;;12.07;10.90;;;14.00;99.90;;;;;;5060275;28;20474;-67
2022/08/02 01:55:47;;;;;;;12.10;11.10;;;14.00;99.90;;;;;;5058018;28;20464;-66
2022/08/02 01:58:18;;;;;;;17.10;11.23;;;14.00;99.90;;;;;;5058723;28;20490;-67
2022/08/02 02:00:49;;;;;;;12.83;11.40;;;14.00;99.90;;;;;;5056073;28;20974;-66
2022/08/02 02:03:20;;;;;;;11.33;10.40;;;14.00;99.90;;;;;;5057492;28;20477;-65
2022/08/02 02:05:49;;;;;;;16.43;11.37;;;13.90;99.90;;;;;;5058410;28;20464;-67
2022/08/02 02:08:19;;;;;;;12.90;12.00;;;14.00;99.90;;;;;;5059227;28;20455;-67
2022/08/02 02:10:47;;;;;;;16.80;11.70;;;13.90;99.90;;;;;;5058375;28;21238;-66
2022/08/02 02:13:18;;;;;;;13.17;12.13;;;13.90;99.90;;;;;;5056176;28;20466;-67
2022/08/02 02:15:49;;;;;;;12.90;11.80;;;13.90;99.90;;;;;;5066376;28;20891;-66
2022/08/02 02:18:21;;;;;;;11.30;10.60;;;13.80;99.90;;;;;;5063702;28;20520;-66
2022/08/02 02:20:49;;;;;;;12.00;11.10;;;13.80;99.90;;;;;;5061059;28;20467;-67
2022/08/02 02:23:18;;;;;;;13.10;11.80;;;13.80;99.90;;;;;;5060559;28;20463;-66
2022/08/02 02:25:46;;;;;;;12.93;11.70;;;13.80;99.90;;;;;;5062420;28;20817;-67
2022/08/02 02:28:20;;;;;;;12.80;11.57;;;13.70;99.90;;;;;;5061564;28;20865;-67
2022/08/02 02:30:49;;;;;;;15.00;13.60;;;13.70;99.90;;;;;;5059959;28;20483;-66
2022/08/02 02:33:19;;;;;;;13.77;12.57;;;13.70;99.90;;;;;;5055825;28;20772;-67
2022/08/02 02:35:50;;;;;;;13.10;11.80;;;13.70;99.90;;;;;;5058912;28;20459;-65
2022/08/02 02:38:20;;;;;;;13.37;12.17;;;13.70;99.90;;;;;;5060770;28;20469;-66
2022/08/02 02:40:48;;;;;;;12.53;11.73;;;13.70;99.90;;;;;;5053751;28;20897;-66
2022/08/02 02:43:21;;;;;;;14.17;12.97;;;13.60;99.90;;;;;;5061825;28;20480;-67
2022/08/02 02:45:49;;;;;;;13.30;12.50;;;13.60;99.90;;;;;;5061121;28;21580;-67
2022/08/02 02:48:17;;;;;;;14.57;13.27;;;13.50;99.90;;;;;;5063930;28;20980;-66
2022/08/02 02:50:47;;;;;;;13.87;12.67;;;13.50;99.90;;;;;;5062409;28;20482;-66
2022/08/02 02:53:18;;;;;;;14.17;13.07;;;13.50;99.90;;;;;;5066237;28;20463;-66
2022/08/02 02:55:45;;;;;;;13.53;12.63;;;13.50;99.90;;;;;;5060334;28;20868;-66
2022/08/02 02:58:13;;;;;;;14.97;13.73;;;13.50;99.90;;;;;;5066370;28;20554;-66
2022/08/02 03:03:28;;;;;;;14.43;13.43;;;13.50;99.90;;;;;;5061381;28;20458;-66
2022/08/02 03:05:56;;;;;;;14.00;13.00;;;13.40;99.90;;;;;;5064652;28;20466;-66
2022/08/02 03:08:24;;;;;;;15.67;14.40;;;13.40;99.90;;;;;;5063491;28;20470;-66
2022/08/02 03:10:51;;;;;;;15.10;14.00;;;13.30;99.90;;;;;;5064634;28;20490;-67
2022/08/02 03:13:19;;;;;;;15.20;13.77;;;13.30;99.90;;;;;;5068361;28;20520;-67
2022/08/02 03:15:48;;;;;;;14.60;13.40;;;13.30;99.90;;;;;;5065779;28;20873;-66
2022/08/02 03:18:30;;;;;;;16.20;14.80;;;13.30;99.90;;;;;;5062475;28;20469;-66
2022/08/02 03:20:59;;;;;;;15.67;14.13;;;13.30;99.90;;;;;;5058454;28;20965;-67
2022/08/02 03:23:28;;;;;;;13.97;13.03;;;13.30;99.90;;;;;;5064958;28;20466;-66
2022/08/02 03:25:56;;;;;;;15.03;13.60;;;13.20;99.90;;;;;;5060846;28;21018;-67
2022/08/02 03:28:24;;;;;;;15.90;14.60;;;13.20;99.90;;;;;;5058841;28;20458;-66
2022/08/02 03:30:52;;;;;;;15.70;14.27;;;13.20;99.90;;;;;;5060630;28;20993;-66
2022/08/02 03:33:20;;;;;;;17.33;15.57;;;13.20;99.90;;;;;;5063348;28;20833;-66
2022/08/02 03:35:49;;;;;;;16.53;14.87;;;13.20;99.90;;;;;;5061364;28;20470;-65
2022/08/02 03:38:19;;;;;;;15.10;13.90;;;13.20;99.90;;;;;;5061833;28;20816;-66
2022/08/02 03:40:47;;;;;;;17.93;16.33;;;13.20;99.90;;;;;;5065085;28;20478;-66
2022/08/02 03:43:17;;;;;;;21.37;15.60;;;13.20;99.90;;;;;;5062210;28;20483;-66
2022/08/02 03:45:48;;;;;;;15.67;14.47;;;13.20;99.90;;;;;;5066895;28;20463;-65
2022/08/02 03:48:17;;;;;;;16.10;14.90;;;13.10;99.90;;;;;;5063956;28;20475;-65
2022/08/02 03:50:47;;;;;;;15.77;14.60;;;13.10;99.90;;;;;;5064174;28;20487;-66
2022/08/02 03:53:16;;;;;;;16.30;14.70;;;13.10;99.90;;;;;;5061074;28;20462;-66
2022/08/02 03:55:45;;;;;;;15.20;14.20;;;13.00;99.90;;;;;;5064055;28;20494;-66
2022/08/02 03:58:19;;;;;;;15.77;14.57;;;13.00;99.90;;;;;;5059267;28;20463;-65
2022/08/02 04:00:47;;;;;;;16.77;15.23;;;13.00;99.90;;;;;;5056071;28;20490;-66
2022/08/02 04:03:15;;;;;;;17.77;14.67;;;13.00;99.90;;;;;;5040454;28;20710;-67
2022/08/02 04:05:42;;;;;;;16.80;15.50;;;12.90;99.90;;;;;;5037865;28;20471;-67
2022/08/02 04:08:09;;;;;;;15.70;14.33;;;12.90;99.90;;;;;;5038196;28;20533;-67
2022/08/02 04:13:17;;;;;;;17.33;15.87;;;12.90;99.90;;;;;;5034650;28;20458;-66
2022/08/02 04:15:46;;;;;;;16.97;15.47;;;12.90;99.90;;;;;;5035523;28;20498;-68
2022/08/02 04:18:14;;;;;;;18.13;16.33;;;12.90;99.90;;;;;;5035001;28;20563;-67
2022/08/02 04:23:27;;;;;;;16.37;15.07;;;12.90;99.90;;;;;;5035497;28;20494;-67
2022/08/02 04:25:55;;;;;;;16.97;15.40;;;12.90;99.90;;;;;;5037529;28;20547;-66
2022/08/02 04:28:22;;;;;;;16.17;14.73;;;12.90;99.90;;;;;;5035501;28;20470;-66
2022/08/02 04:30:50;;;;;;;17.00;15.60;;;13.00;99.90;;;;;;5035370;28;20835;-66
2022/08/02 04:33:18;;;;;;;21.20;15.87;;;13.00;99.90;;;;;;5035790;28;20476;-68
2022/08/02 04:35:46;;;;;;;15.57;14.57;;;13.00;99.90;;;;;;5053910;28;20512;-67
2022/08/02 04:38:14;;;;;;;17.77;15.30;;;13.10;99.90;;;;;;5037123;28;20477;-66
2022/08/02 04:40:49;;;;;;;17.10;15.60;;;13.10;99.90;;;;;;5037736;28;20471;-67
2022/08/02 04:43:16;;;;;;;16.40;15.00;;;13.20;99.90;;;;;;5037297;28;20839;-67
2022/08/02 04:45:43;;;;;;;16.63;15.07;;;13.20;99.90;;;;;;5036913;28;20486;-66
2022/08/02 04:48:10;;;;;;;15.43;14.40;;;13.30;99.90;;;;;;5035779;28;21189;-65
2022/08/02 04:50:37;;;;;;;18.23;16.10;;;13.40;99.90;;;;;;5037408;28;20962;-67
2022/08/02 04:53:05;;;;;;;17.80;15.33;;;13.40;99.90;;;;;;5032677;28;20466;-67
2022/08/02 04:55:32;;;;;;;15.63;14.53;;;13.30;99.90;;;;;;5032729;28;20474;-66
2022/08/02 04:57:59;;;;;;;15.80;14.50;;;13.40;99.90;;;;;;5042497;28;21079;-66
2022/08/02 05:00:28;;;;;;;17.87;14.70;;;13.50;99.90;;;;;;5031856;28;20463;-67
2022/08/02 05:02:56;;;;;;;14.50;13.10;;;13.70;99.90;;;;;;5064663;28;20845;-65
2022/08/02 05:05:23;;;;;;;13.97;12.73;;;13.80;99.90;;;;;;5044525;28;20479;-65
2022/08/02 05:07:50;;;;;;;14.10;12.80;;;14.00;99.90;;;;;;5010096;28;20458;-67
2022/08/02 05:10:19;;;;;;;12.93;12.00;;;14.20;99.90;;;;;;5031858;28;20470;-67
2022/08/02 05:12:46;;;;;;;13.50;12.10;;;14.40;99.90;;;;;;5031155;28;21663;-67
2022/08/02 05:15:15;;;;;;;18.37;12.87;;;14.70;99.90;;;;;;5032084;28;20621;-65
2022/08/02 05:17:43;;;;;;;14.20;12.57;;;14.90;99.90;;;;;;5032734;28;20496;-67
2022/08/02 05:20:12;;;;;;;16.30;12.93;;;15.10;99.90;;;;;;5033876;28;20549;-67
2022/08/02 05:22:39;;;;;;;13.77;12.53;;;15.30;99.90;;;;;;5033978;28;21054;-67
2022/08/02 05:25:07;;;;;;;18.03;12.47;;;15.40;99.90;;;;;;5035475;28;20474;-67
2022/08/02 05:27:35;;;;;;;13.73;11.10;;;15.50;99.90;;;;;;5033670;28;20463;-67
2022/08/02 05:30:03;;;;;;;17.43;11.83;;;15.60;99.90;;;;;;5034701;28;20471;-68
2022/08/02 05:32:30;;;;;;;17.60;10.93;;;15.60;99.90;;;;;;5031740;28;21117;-68
2022/08/02 05:34:57;;;;;;;26.63;12.40;;;15.70;99.90;;;;;;5032495;28;20491;-67
2022/08/02 05:37:24;;;;;;;44.47;13.30;;;15.90;99.90;;;;;;5032898;28;21348;-66
2022/08/02 05:39:51;;;;;;;29.27;12.60;;;16.00;99.90;;;;;;5029837;28;20471;-67
2022/08/02 05:42:18;;;;;;;33.17;12.97;;;16.20;99.90;;;;;;5032376;28;20919;-66
2022/08/02 05:44:46;;;;;;;34.17;14.40;;;16.30;99.90;;;;;;5034682;28;21518;-67
2022/08/02 05:47:13;;;;;;;27.50;12.83;;;16.50;99.90;;;;;;5035976;28;20456;-67
2022/08/02 05:49:40;;;;;;;22.53;11.90;;;16.60;99.90;;;;;;5035530;28;20487;-67
2022/08/02 05:52:14;;;;;;;57.50;14.23;;;16.70;99.90;;;;;;5033742;28;20486;-68
2022/08/02 05:54:49;;;;;;;20.57;13.00;;;16.90;99.90;;;;;;5034049;28;20466;-67
2022/08/02 05:57:24;;;;;;;33.90;14.17;;;17.00;99.90;;;;;;5032586;28;20463;-67
2022/08/02 06:00:02;;;;;;;23.53;13.67;;;17.20;99.90;;;;;;5033864;28;20459;-66
2022/08/02 06:02:36;;;;;;;24.00;12.93;;;17.30;99.90;;;;;;5044482;28;20461;-67
2022/08/02 06:05:06;;;;;;;25.83;13.70;;;17.50;99.90;;;;;;5053826;28;20968;-67
2022/08/02 06:07:36;;;;;;;48.50;13.60;;;17.60;99.90;;;;;;5052118;28;20458;-67
2022/08/02 06:10:05;;;;;;;29.23;15.90;;;17.70;99.90;;;;;;5045807;28;20451;-67
2022/08/02 06:12:35;;;;;;;18.07;14.17;;;17.80;99.90;;;;;;5031799;28;20483;-66
2022/08/02 06:15:05;;;;;;;28.87;15.27;;;18.00;99.90;;;;;;5032720;28;20576;-67
2022/08/02 06:17:33;;;;;;;23.00;15.00;;;18.10;99.90;;;;;;5032953;28;20656;-67
2022/08/02 06:20:00;;;;;;;17.20;14.70;;;18.20;99.90;;;;;;5032605;28;20459;-66
2022/08/02 06:22:28;;;;;;;37.73;16.50;;;18.40;99.90;;;;;;5032130;28;20846;-67
2022/08/02 06:24:55;;;;;;;30.83;15.43;;;18.50;99.90;;;;;;5033006;28;20640;-68
2022/08/02 06:27:27;;;;;;;32.43;15.47;;;18.60;99.90;;;;;;5033582;28;20456;-67
2022/08/02 06:29:55;;;;;;;25.40;15.27;;;18.80;99.90;;;;;;5033557;28;20473;-67
2022/08/02 06:32:26;;;;;;;33.30;15.87;;;18.90;99.90;;;;;;5033896;28;20523;-68
2022/08/02 06:34:52;;;;;;;28.30;15.53;;;19.10;99.90;;;;;;5034851;28;20463;-67
2022/08/02 06:37:26;;;;;;;36.33;17.00;;;19.30;99.90;;;;;;5034857;28;20459;-67
2022/08/02 06:40:01;;;;;;;48.10;16.40;;;19.40;99.90;;;;;;5034290;28;20480;-69
2022/08/02 06:42:37;;;;;;;24.47;16.53;;;19.60;99.90;;;;;;5034497;28;20474;-69
2022/08/02 06:45:05;;;;;;;24.80;17.13;;;19.70;99.90;;;;;;5033438;28;22689;-67
2022/08/02 06:47:33;;;;;;;29.13;17.50;;;19.80;99.90;;;;;;5034382;28;20502;-66
2022/08/02 06:50:01;;;;;;;28.77;17.40;;;20.00;99.90;;;;;;5033540;28;20491;-67
2022/08/02 06:52:29;;;;;;;25.20;16.50;;;20.00;99.90;;;;;;5033961;28;20487;-67
2022/08/02 06:54:58;;;;;;;39.13;19.90;;;20.10;99.90;;;;;;5032153;28;20599;-68
2022/08/02 06:57:25;;;;;;;39.33;17.50;;;20.30;99.90;;;;;;5030936;28;20467;-66
2022/08/02 06:59:52;;;;;;;25.60;15.83;;;20.40;99.90;;;;;;5031085;28;20448;-67
2022/08/02 07:02:19;;;;;;;29.43;17.60;;;20.50;99.90;;;;;;5051880;28;20494;-67
2022/08/02 07:04:48;;;;;;;33.73;17.10;;;20.70;99.90;;;;;;5049399;28;20482;-68
2022/08/02 07:07:14;;;;;;;29.47;18.33;;;20.90;99.90;;;;;;5027983;28;20493;-68
2022/08/02 07:09:42;;;;;;;33.30;16.90;;;21.00;99.90;;;;;;5028922;28;20674;-67
2022/08/02 07:12:09;;;;;;;30.10;16.70;;;21.20;99.90;;;;;;5029878;28;20846;-67
2022/08/02 07:14:50;;;;;;;27.70;16.97;;;21.40;99.90;;;;;;5031577;28;21195;-67
2022/08/02 07:17:17;;;;;;;17.20;15.50;;;21.60;99.90;;;;;;5031929;28;20475;-68
2022/08/02 07:19:44;;;;;;;26.33;16.63;;;21.60;99.90;;;;;;5030302;28;21023;-68
2022/08/02 07:22:13;;;;;;;28.77;16.90;;;21.80;99.90;;;;;;5030956;28;20894;-67
2022/08/02 07:24:40;;;;;;;20.37;17.43;;;21.90;99.90;;;;;;5032013;28;20796;-67
2022/08/02 07:27:07;;;;;;;40.00;17.00;;;22.00;99.90;;;;;;5031776;28;21321;-68
2022/08/02 07:29:34;;;;;;;20.93;16.73;;;22.10;99.90;;;;;;5032894;28;20478;-69
2022/08/02 07:34:42;;;;;;;22.50;16.73;;;22.40;99.90;;;;;;5033440;28;20474;-68
2022/08/02 07:37:09;;;;;;;24.73;16.60;;;22.60;99.90;;;;;;5035130;28;20895;-68
2022/08/02 07:39:37;;;;;;;20.07;16.20;;;22.80;99.90;;;;;;5034634;28;20468;-67
2022/08/02 07:42:04;;;;;;;23.33;16.70;;;22.80;99.90;;;;;;5035193;28;20474;-68
2022/08/02 07:47:12;;;;;;;26.80;16.93;;;23.10;99.90;;;;;;5033870;28;20503;-69
2022/08/02 07:49:40;;;;;;;28.87;17.27;;;23.20;99.90;;;;;;5034103;28;20475;-68
2022/08/02 07:52:08;;;;;;;30.23;16.63;;;23.50;99.90;;;;;;5034419;28;20580;-68
2022/08/02 07:54:34;;;;;;;25.87;16.80;;;23.70;99.90;;;;;;5034590;28;20476;-67
2022/08/02 07:57:03;;;;;;;18.40;16.83;;;23.80;99.90;;;;;;5034342;28;20712;-67
2022/08/02 07:59:30;;;;;;;17.90;16.80;;;23.80;99.90;;;;;;5035081;28;21444;-68
2022/08/02 08:01:57;;;;;;;18.30;17.10;;;24.10;99.90;;;;;;5050697;28;20459;-68
2022/08/02 08:04:24;;;;;;;19.23;17.60;;;24.20;99.90;;;;;;5063637;28;20549;-67
2022/08/02 08:06:52;;;;;;;22.13;18.07;;;24.40;99.90;;;;;;5061350;28;20463;-68
2022/08/02 08:09:21;;;;;;;18.17;17.17;;;24.50;99.90;;;;;;5064485;28;20475;-68
2022/08/02 08:11:48;;;;;;;17.80;16.80;;;24.40;99.90;;;;;;5038439;28;21533;-67
2022/08/02 08:14:16;;;;;;;20.20;18.47;;;24.70;99.90;;;;;;5037295;28;21022;-67
2022/08/02 08:16:44;;;;;;;19.10;17.20;;;25.00;99.90;;;;;;5036446;28;20938;-68
2022/08/02 08:19:11;;;;;;;18.00;16.83;;;25.10;99.90;;;;;;5035863;28;20469;-68
2022/08/02 08:21:37;;;;;;;17.60;16.60;;;25.20;99.90;;;;;;5035716;28;20904;-68
2022/08/02 08:24:05;;;;;;;17.83;16.90;;;25.30;99.90;;;;;;5034744;28;20473;-68
2022/08/02 08:26:32;;;;;;;17.43;16.33;;;25.50;99.90;;;;;;5036466;28;20463;-69
2022/08/02 08:29:00;;;;;;;19.33;18.03;;;25.60;99.90;;;;;;5035685;28;22875;-68
2022/08/02 08:31:28;;;;;;;18.80;17.43;;;25.60;99.90;;;;;;5035463;28;20500;-67
2022/08/02 08:33:55;;;;;;;17.60;16.30;;;25.70;99.90;;;;;;5036272;28;20907;-68
2022/08/02 08:36:23;;;;;;;17.40;16.40;;;25.90;99.90;;;;;;5035821;28;20464;-68
2022/08/02 08:38:50;;;;;;;18.70;17.43;;;26.10;99.90;;;;;;5035258;28;20471;-68
2022/08/02 08:41:17;;;;;;;17.87;16.97;;;26.70;99.90;;;;;;5035420;28;20581;-68
2022/08/02 08:43:44;;;;;;;17.87;16.50;;;27.20;99.90;;;;;;5034561;28;20520;-68
2022/08/02 08:46:17;;;;;;;16.90;16.10;;;27.50;99.90;;;;;;5035553;28;20498;-69
2022/08/02 08:48:48;;;;;;;17.33;16.33;;;27.70;99.90;;;;;;5035236;28;21311;-68
2022/08/02 08:51:19;;;;;;;17.70;16.80;;;27.80;99.90;;;;;;5035007;28;21281;-69
2022/08/02 08:53:48;;;;;;;18.27;17.10;;;28.20;99.90;;;;;;5034917;28;20482;-67
2022/08/02 08:56:17;;;;;;;17.73;16.73;;;28.80;99.90;;;;;;5035612;28;20485;-68
2022/08/02 08:58:47;;;;;;;18.17;17.03;;;28.80;99.90;;;;;;5035081;28;20512;-69
2022/08/02 09:01:15;;;;;;;18.53;17.43;;;29.10;99.90;;;;;;5033413;28;20543;-68
2022/08/02 09:03:42;;;;;;;18.00;16.77;;;29.70;99.90;;;;;;5044795;28;20467;-68
2022/08/02 09:06:12;;;;;;;18.30;17.30;;;29.70;99.90;;;;;;5052929;28;20494;-68
2022/08/02 09:08:38;;;;;;;18.60;17.60;;;30.00;99.90;;;;;;5048096;28;20887;-68
2022/08/02 09:11:14;;;;;;;19.70;18.20;;;30.00;99.90;;;;;;5035002;28;20463;-69
2022/08/02 09:13:49;;;;;;;17.17;16.17;;;30.20;99.90;;;;;;5034150;28;20657;-69
2022/08/02 09:16:26;;;;;;;16.83;15.83;;;30.30;98.80;;;;;;5035275;28;20479;-68
2022/08/02 09:18:53;;;;;;;17.00;16.20;;;30.00;98.50;;;;;;5035914;28;20469;-69
2022/08/02 09:21:22;;;;;;;17.73;16.83;;;29.90;99.00;;;;;;5035574;28;20586;-68
2022/08/02 09:23:50;;;;;;;16.87;16.00;;;29.40;99.60;;;;;;5035678;28;20620;-68
2022/08/02 09:26:19;;;;;;;16.97;16.17;;;29.50;99.70;;;;;;5035260;28;20463;-68
2022/08/02 09:28:49;;;;;;;17.50;16.30;;;29.30;99.90;;;;;;5035295;28;20464;-69
2022/08/02 09:31:17;;;;;;;17.50;16.40;;;29.30;99.70;;;;;;5035342;28;20475;-69
2022/08/02 09:33:53;;;;;;;17.20;16.20;;;29.60;99.00;;;;;;5034760;28;20498;-68
2022/08/02 09:36:21;;;;;;;18.57;17.40;;;29.90;99.30;;;;;;5035643;28;20501;-68
2022/08/02 09:38:57;;;;;;;16.80;15.90;;;30.00;98.20;;;;;;5034054;28;20463;-70
2022/08/02 09:41:25;;;;;;;17.50;16.60;;;30.70;97.50;;;;;;5033767;28;20986;-67
2022/08/02 09:43:54;;;;;;;17.20;16.20;;;30.90;97.00;;;;;;5034366;28;20884;-69
2022/08/02 09:46:24;;;;;;;17.27;16.20;;;30.60;96.40;;;;;;5033612;28;20783;-68
2022/08/02 09:48:53;;;;;;;17.20;16.20;;;30.40;97.10;;;;;;5033912;28;20463;-68
2022/08/02 09:51:23;;;;;;;16.87;15.60;;;30.30;97.00;;;;;;5033752;28;20965;-69
2022/08/02 09:53:53;;;;;;;18.33;17.33;;;30.60;96.00;;;;;;5034110;28;20606;-69
2022/08/02 09:56:21;;;;;;;16.73;15.93;;;31.10;95.40;;;;;;5033130;28;20459;-69
2022/08/02 09:58:48;;;;;;;17.40;16.40;;;30.70;95.40;;;;;;5032924;28;20478;-68
2022/08/02 10:01:15;;;;;;;17.43;16.20;;;30.10;95.40;;;;;;5033402;28;20483;-68
2022/08/02 10:03:57;;;;;;;17.83;16.93;;;30.00;96.40;;;;;;5033513;28;20559;-68
2022/08/02 10:06:25;;;;;;;16.53;15.73;;;29.70;96.00;;;;;;5034961;28;20610;-69
2022/08/02 10:08:53;;;;;;;17.17;15.80;;;28.90;96.80;;;;;;5036241;28;20484;-69
2022/08/02 10:11:21;;;;;;;16.73;15.93;;;28.60;96.80;;;;;;5038023;28;20489;-69
2022/08/02 10:13:49;;;;;;;16.53;15.60;;;28.30;97.50;;;;;;5033096;28;20963;-69
2022/08/02 10:16:18;;;;;;;16.50;15.80;;;28.80;98.10;;;;;;5032797;28;20474;-69
2022/08/02 10:18:45;;;;;;;17.03;16.03;;;29.60;96.70;;;;;;5033124;28;20470;-69
2022/08/02 10:21:15;;;;;;;18.23;17.07;;;30.30;95.20;;;;;;5033276;28;20459;-69
2022/08/02 10:23:46;;;;;;;16.30;15.40;;;30.70;94.10;;;;;;5032732;28;20474;-68
2022/08/02 10:26:18;;;;;;;17.30;16.40;;;31.00;93.20;;;;;;5033779;28;20561;-69
2022/08/02 10:28:48;;;;;;;17.80;16.80;;;31.10;93.00;;;;;;5033028;28;20466;-70
2022/08/02 10:31:20;;;;;;;16.73;15.93;;;31.60;91.50;;;;;;5032433;28;20467;-68
2022/08/02 10:33:51;;;;;;;17.83;16.73;;;32.00;91.70;;;;;;5033331;28;20942;-70
2022/08/02 10:36:19;;;;;;;17.90;16.50;;;32.00;91.30;;;;;;5032226;28;20467;-70
2022/08/02 10:38:47;;;;;;;16.80;15.80;;;31.80;86.80;;;;;;5033194;28;20460;-68
2022/08/02 10:41:14;;;;;;;17.40;16.37;;;32.10;87.50;;;;;;5032639;28;20471;-69
2022/08/02 10:43:44;;;;;;;17.20;16.40;;;32.60;89.60;;;;;;5033510;28;20566;-69
2022/08/02 10:46:37;;;;;;;17.17;16.07;;;33.40;87.40;;;;;;5032043;28;20470;-69
2022/08/02 10:49:11;;;;;;;16.93;16.13;;;32.70;84.40;;;;;;4986160;28;20813;-70
2022/08/02 10:52:05;;;;;;;18.37;16.73;;;31.80;85.60;;;;;;5033569;28;20844;-69
2022/08/02 10:54:36;;;;;;;17.40;16.50;;;32.00;85.10;;;;;;5034337;28;20495;-69
2022/08/02 10:57:14;;;;;;;17.27;16.17;;;32.00;85.20;;;;;;5034244;28;20814;-68
2022/08/02 10:59:40;;;;;;;17.00;15.93;;;31.90;85.80;;;;;;5033521;28;20463;-69
2022/08/02 11:02:08;;;;;;;17.20;16.30;;;32.20;83.80;;;;;;5045164;28;20463;-68
2022/08/02 11:05:03;;;;;;;17.03;16.10;;;32.40;84.80;;;;;;5033481;28;20495;-69
2022/08/02 11:07:35;;;;;;;18.37;17.30;;;32.80;80.70;;;;;;5034811;28;20460;-69
2022/08/02 11:10:36;;;;;;;17.63;16.50;;;33.20;78.90;;;;;;5036997;28;20454;-69
2022/08/02 11:13:09;;;;;;;17.30;16.50;;;32.50;79.00;;;;;;5037707;28;20498;-69
2022/08/02 11:16:00;;;;;;;17.93;16.80;;;32.00;79.00;;;;;;5036759;28;20840;-70
2022/08/02 11:19:07;;;;;;;17.10;16.17;;;32.30;80.40;;;;;;5037936;28;21296;-69
2022/08/02 11:21:36;;;;;;;17.20;16.07;;;32.40;80.40;;;;;;5037079;28;21033;-69
2022/08/02 11:24:28;;;;;;;16.60;15.70;;;32.50;77.00;;;;;;5037321;28;20508;-70
2022/08/02 11:26:58;;;;;;;17.13;16.23;;;32.70;79.50;;;;;;5037509;28;20459;-69
2022/08/02 11:29:36;;;;;;;16.70;15.70;;;33.50;80.40;;;;;;5036348;28;20563;-69
2022/08/02 11:32:04;;;;;;;17.90;16.60;;;34.20;73.20;;;;;;5036176;28;20451;-70
2022/08/02 11:34:33;;;;;;;17.13;16.00;;;34.50;72.60;;;;;;5035811;28;21180;-70
2022/08/02 11:37:00;;;;;;;16.17;15.37;;;34.70;70.50;;;;;;5035904;28;20970;-69
2022/08/02 11:39:27;;;;;;;17.17;16.13;;;34.70;67.80;;;;;;5036144;28;20467;-70
2022/08/02 11:41:56;;;;;;;17.30;16.30;;;34.10;68.60;;;;;;5035375;28;20640;-68
2022/08/02 11:44:24;;;;;;;17.50;16.60;;;33.70;67.20;;;;;;5035995;28;20531;-70
2022/08/02 11:46:57;;;;;;;17.70;16.57;;;33.70;67.50;;;;;;5035357;28;20459;-70
2022/08/02 11:49:24;;;;;;;16.90;16.00;;;33.40;66.30;;;;;;5036535;28;20460;-70
2022/08/02 11:51:56;;;;;;;16.60;15.80;;;33.10;66.10;;;;;;5036157;28;20885;-70
2022/08/02 11:54:24;;;;;;;17.07;16.20;;;33.00;67.30;;;;;;5036915;28;20490;-70
2022/08/02 11:56:51;;;;;;;16.93;16.13;;;32.90;69.00;;;;;;5036011;28;20458;-69
2022/08/02 11:59:17;;;;;;;16.97;16.17;;;32.30;70.70;;;;;;5035822;28;20482;-69
2022/08/02 12:01:46;;;;;;;17.30;16.50;;;32.00;71.90;;;;;;5034903;28;20460;-69
2022/08/02 12:04:18;;;;;;;17.07;16.27;;;31.70;74.80;;;;;;5036482;28;20518;-69
2022/08/02 12:06:54;;;;;;;17.20;15.97;;;31.50;73.20;;;;;;5035777;28;20468;-69
2022/08/02 12:09:21;;;;;;;17.47;16.30;;;31.50;74.30;;;;;;5037275;28;20549;-68
2022/08/02 12:11:49;;;;;;;16.77;15.73;;;31.60;74.40;;;;;;5036197;28;20459;-69
2022/08/02 12:14:17;;;;;;;17.73;16.20;;;31.40;74.30;;;;;;5036307;28;20969;-69
2022/08/02 12:19:30;;;;;;;16.13;15.33;;;31.30;75.60;;;;;;5036891;28;20933;-68
2022/08/02 12:22:08;;;;;;;17.07;16.00;;;31.80;75.60;;;;;;5036629;28;20463;-69
2022/08/02 12:24:38;;;;;;;16.70;15.90;;;32.80;72.30;;;;;;5035926;28;20470;-70
2022/08/02 12:27:05;;;;;;;16.63;15.67;;;33.50;72.00;;;;;;5036012;28;20993;-68
2022/08/02 12:29:34;;;;;;;16.70;15.90;;;33.80;70.80;;;;;;5035302;28;20463;-70
2022/08/02 12:32:02;;;;;;;16.27;15.33;;;34.00;68.90;;;;;;5035312;28;20463;-68
2022/08/02 12:34:32;;;;;;;17.10;16.00;;;33.80;67.80;;;;;;5035601;28;20493;-70
2022/08/02 12:37:01;;;;;;;17.50;16.50;;;33.20;67.30;;;;;;5034894;28;20463;-68
2022/08/02 12:39:37;;;;;;;16.73;15.90;;;33.00;68.60;;;;;;5035014;28;20504;-69
2022/08/02 12:42:06;;;;;;;16.40;15.30;;;31.90;71.00;;;;;;5035736;28;20467;-70
2022/08/02 12:44:33;;;;;;;17.47;16.40;;;32.70;69.90;;;;;;5035333;28;20494;-70
2022/08/02 12:47:02;;;;;;;15.73;14.93;;;33.70;67.80;;;;;;5036258;28;21075;-70
2022/08/02 12:49:31;;;;;;;16.43;15.37;;;34.00;67.10;;;;;;5035512;28;20909;-70
2022/08/02 12:51:58;;;;;;;16.60;15.60;;;34.60;64.40;;;;;;5034781;28;20989;-69
2022/08/02 12:54:28;;;;;;;15.70;15.00;;;34.60;64.10;;;;;;5035920;28;20487;-69
2022/08/02 12:56:55;;;;;;;16.30;15.50;;;35.00;64.90;;;;;;5034946;28;20598;-70